Westover Hills, Texas
Current Conditions -  °F | °C
As of 11:52 AM on Monday 22 Dec 2014 (Local Time) from KNFW Reporting Station
Few Clouds Few Clouds  
Wind Chill: 65°   Ceiling: Unl
Heat Index: 65°   Visibility: 10mi
Dew Point: 39°   Wind: 14mph
Humidity: 39%   Direction: 300°WNW
Pressure: 29.65"   Gusts: NA
Location:  32.74°N, 97.3832°W
Report Text: KNFW 221752Z 30012KT 10SM FEW200 18/04 A2965 RMK AO2 SLP026 T01830039 10183 20100 51004
Loading
Personal Weather Stations






























Interactive Weather Map New forecast layout! Learn more

10-Day Weather Forecast

Advertisements
Track Severe Weather on mobile